Time;durP1;ratioP1;P1;durP2;ratioP2;P2;SDS_P1;SDS_P2;PMS_P1;PMS_P2;Temp;Humidity;BMP_temperature;BMP_pressure;BME280_temperature;BME280_humidity;BME280_pressure;Samples;Min_cycle;Max_cycle;Signal;HPM_P1;HPM_P2
2022/07/27 00:00:05;;;;;;;5.80;4.27;;;21.10;1.00;;;;;;4925755;29;20204;-73
2022/07/27 00:02:31;;;;;;;5.60;4.10;;;21.20;1.00;;;;;;4930166;29;20207;-72
2022/07/27 00:04:56;;;;;;;4.97;4.27;;;22.40;1.00;;;;;;4930578;29;20507;-73
2022/07/27 00:07:22;;;;;;;5.20;4.30;;;21.20;1.00;;;;;;4930645;29;20179;-73
2022/07/27 00:09:47;;;;;;;7.33;4.47;;;21.10;1.00;;;;;;4931046;29;20181;-72
2022/07/27 00:12:13;;;;;;;7.43;4.70;;;21.10;1.00;;;;;;4929887;29;20201;-73
2022/07/27 00:14:38;;;;;;;7.00;5.00;;;21.10;1.00;;;;;;4925230;29;20179;-72
2022/07/27 00:17:04;;;;;;;9.20;5.17;;;21.10;1.00;;;;;;4931167;29;20260;-72
2022/07/27 00:19:29;;;;;;;6.97;5.03;;;21.00;1.00;;;;;;4930746;29;20544;-72
2022/07/27 00:21:57;;;;;;;7.00;5.33;;;23.10;1.00;;;;;;4928442;29;20196;-73
2022/07/27 00:24:23;;;;;;;5.03;4.40;;;21.00;1.00;;;;;;4930673;29;20196;-73
2022/07/27 00:26:48;;;;;;;6.67;4.20;;;21.20;1.00;;;;;;4931632;29;20416;-73
2022/07/27 00:29:14;;;;;;;7.27;4.50;;;20.90;1.00;;;;;;4924257;29;20440;-73
2022/07/27 00:31:39;;;;;;;5.40;4.00;;;20.90;1.00;;;;;;4927726;29;20199;-73
2022/07/27 00:34:05;;;;;;;5.33;4.20;;;20.80;1.00;;;;;;4930198;29;20239;-73
2022/07/27 00:36:31;;;;;;;5.53;4.30;;;20.80;1.00;;;;;;4931703;29;20185;-73
2022/07/27 00:38:56;;;;;;;5.60;4.50;;;20.80;1.00;;;;;;4931197;29;20188;-73
2022/07/27 00:41:22;;;;;;;5.70;3.97;;;20.70;1.00;;;;;;4928473;29;20263;-73
2022/07/27 00:43:58;;;;;;;6.03;4.20;;;20.70;1.00;;;;;;4926229;29;20208;-72
2022/07/27 00:46:25;;;;;;;6.00;3.93;;;20.80;1.00;;;;;;4935684;29;20255;-73
2022/07/27 00:48:52;;;;;;;5.80;4.37;;;20.80;1.00;;;;;;4931014;29;20409;-73
2022/07/27 00:51:18;;;;;;;6.97;4.80;;;20.80;1.00;;;;;;4923860;29;20444;-73
2022/07/27 00:53:45;;;;;;;5.90;4.20;;;20.90;1.00;;;;;;4931125;29;20500;-73
2022/07/27 00:56:11;;;;;;;6.67;5.10;;;20.90;1.00;;;;;;4930986;29;20433;-73
2022/07/27 00:58:37;;;;;;;5.93;4.13;;;20.90;1.00;;;;;;4930345;29;20468;-73
2022/07/27 01:01:03;;;;;;;7.13;4.10;;;20.80;1.00;;;;;;4943256;29;20316;-72
2022/07/27 01:03:29;;;;;;;5.90;4.30;;;20.80;1.00;;;;;;4931167;29;20216;-73
2022/07/27 01:05:54;;;;;;;7.53;4.20;;;20.80;1.00;;;;;;4929569;29;20448;-73
2022/07/27 01:08:20;;;;;;;9.43;4.57;;;20.80;1.00;;;;;;4931180;29;20255;-73
2022/07/27 01:10:46;;;;;;;8.40;4.40;;;20.80;1.00;;;;;;4927616;29;20256;-72
2022/07/27 01:13:14;;;;;;;7.00;4.60;;;20.90;1.00;;;;;;4928501;29;20575;-73
2022/07/27 01:15:41;;;;;;;4.80;4.00;;;20.90;1.00;;;;;;4929669;29;20680;-73
2022/07/27 01:18:12;;;;;;;7.57;4.60;;;20.90;1.00;;;;;;4931509;29;20443;-73
2022/07/27 01:20:40;;;;;;;7.03;4.63;;;21.00;1.00;;;;;;4929674;29;20570;-73
2022/07/27 01:23:05;;;;;;;7.90;4.43;;;21.00;1.00;;;;;;4945189;28;20464;-73
2022/07/27 01:25:32;;;;;;;8.20;4.60;;;21.00;1.00;;;;;;4930934;29;20440;-73
2022/07/27 01:27:57;;;;;;;6.53;4.67;;;21.00;1.00;;;;;;4945098;29;20177;-73
2022/07/27 01:30:25;;;;;;;5.20;4.57;;;21.10;1.00;;;;;;4930132;29;20460;-73
2022/07/27 01:32:59;;;;;;;5.90;4.43;;;21.10;1.00;;;;;;4930748;29;20177;-73
2022/07/27 01:35:24;;;;;;;6.87;4.20;;;21.10;1.00;;;;;;4944655;29;21125;-73
2022/07/27 01:37:50;;;;;;;5.30;4.80;;;21.10;1.00;;;;;;4931179;29;20504;-73
2022/07/27 01:40:15;;;;;;;5.40;4.43;;;21.10;1.00;;;;;;4930491;29;20659;-73
2022/07/27 01:42:41;;;;;;;7.67;4.67;;;21.00;1.00;;;;;;4924265;29;20197;-73
2022/07/27 01:45:07;;;;;;;6.40;4.60;;;22.60;1.00;;;;;;4933898;29;20648;-73
2022/07/27 01:47:33;;;;;;;6.30;4.10;;;21.00;1.00;;;;;;4933682;29;20584;-73
2022/07/27 01:49:58;;;;;;;6.27;4.30;;;21.00;1.00;;;;;;4934101;29;20412;-73
2022/07/27 01:52:24;;;;;;;11.17;4.77;;;21.10;1.00;;;;;;4932454;29;20207;-73
2022/07/27 01:54:49;;;;;;;7.90;5.00;;;21.10;1.00;;;;;;4933960;29;20177;-73
2022/07/27 01:57:15;;;;;;;5.17;4.20;;;21.00;1.00;;;;;;4933147;29;20204;-73
2022/07/27 01:59:40;;;;;;;5.73;4.90;;;21.00;1.00;;;;;;4932312;29;20805;-72
2022/07/27 02:02:06;;;;;;;5.90;4.87;;;21.00;1.00;;;;;;4946881;29;20295;-73
2022/07/27 02:04:31;;;;;;;5.57;4.30;;;21.00;1.00;;;;;;4932813;29;20264;-73
2022/07/27 02:06:57;;;;;;;8.20;4.50;;;21.30;1.00;;;;;;4934349;29;20177;-73
2022/07/27 02:09:24;;;;;;;4.90;4.40;;;21.00;1.00;;;;;;4933456;29;20184;-73
2022/07/27 02:14:34;;;;;;;6.30;4.40;;;21.00;1.00;;;;;;4933055;29;20463;-73
2022/07/27 02:17:00;;;;;;;6.23;4.50;;;21.10;1.00;;;;;;4933519;29;20440;-73
2022/07/27 02:19:27;;;;;;;7.93;5.23;;;21.10;1.00;;;;;;4933684;29;20183;-73
2022/07/27 02:21:53;;;;;;;13.50;5.17;;;21.10;1.00;;;;;;4931130;29;20510;-73
2022/07/27 02:24:18;;;;;;;6.07;4.50;;;21.10;1.00;;;;;;4932759;29;20478;-73
2022/07/27 02:26:44;;;;;;;7.97;5.00;;;21.10;1.00;;;;;;4933534;29;20441;-73
2022/07/27 02:29:10;;;;;;;8.67;4.93;;;21.10;1.00;;;;;;4942946;29;20256;-73
2022/07/27 02:31:35;;;;;;;6.93;4.53;;;21.10;1.00;;;;;;4925677;29;20188;-72
2022/07/27 02:34:01;;;;;;;9.13;4.70;;;21.10;1.00;;;;;;4932710;29;20212;-73
2022/07/27 02:36:29;;;;;;;6.97;4.70;;;21.10;1.00;;;;;;4932938;29;20279;-72
2022/07/27 02:38:56;;;;;;;6.57;4.57;;;21.10;1.00;;;;;;4933432;29;20180;-73
2022/07/27 02:41:22;;;;;;;7.43;4.43;;;21.00;1.00;;;;;;4931199;29;20696;-73
2022/07/27 02:43:47;;;;;;;7.40;4.50;;;20.90;1.00;;;;;;4931458;29;20463;-73
2022/07/27 02:46:13;;;;;;;6.33;4.43;;;21.00;1.00;;;;;;4932582;29;20640;-73
2022/07/27 02:48:38;;;;;;;6.17;4.33;;;21.00;1.00;;;;;;4947278;29;20250;-73
2022/07/27 02:51:04;;;;;;;5.57;4.63;;;21.00;1.00;;;;;;4930561;29;20231;-72
2022/07/27 02:53:30;;;;;;;7.30;4.47;;;20.90;1.00;;;;;;4931611;29;20265;-73
2022/07/27 02:55:56;;;;;;;7.20;3.83;;;20.90;1.00;;;;;;4932558;29;20212;-73
2022/07/27 02:58:22;;;;;;;10.50;4.30;;;20.90;1.00;;;;;;4924747;29;20177;-73
2022/07/27 03:00:47;;;;;;;5.60;4.27;;;20.90;1.00;;;;;;4932246;29;20464;-73
2022/07/27 03:03:13;;;;;;;4.70;3.90;;;20.90;1.00;;;;;;4931511;29;20878;-73
2022/07/27 03:05:39;;;;;;;7.97;3.90;;;20.90;1.00;;;;;;4944193;29;20174;-73
2022/07/27 03:08:04;;;;;;;5.40;4.20;;;20.90;1.00;;;;;;4930482;29;20185;-73
2022/07/27 03:10:30;;;;;;;6.50;4.20;;;20.90;1.00;;;;;;4923723;29;20231;-73
2022/07/27 03:12:56;;;;;;;4.93;3.80;;;20.90;1.00;;;;;;4929611;29;20559;-73
2022/07/27 03:15:22;;;;;;;5.40;3.90;;;21.00;1.00;;;;;;4932914;29;20180;-73
2022/07/27 03:17:47;;;;;;;5.73;3.60;;;21.00;1.00;;;;;;4932238;29;20184;-73
2022/07/27 03:20:13;;;;;;;4.57;3.70;;;21.20;1.00;;;;;;4929037;29;20185;-73
2022/07/27 03:22:39;;;;;;;6.37;3.83;;;20.90;1.00;;;;;;4927932;29;20609;-72
2022/07/27 03:25:05;;;;;;;4.63;4.03;;;20.90;1.00;;;;;;4931928;29;20183;-73
2022/07/27 03:27:31;;;;;;;5.07;3.77;;;20.90;1.00;;;;;;4932096;29;20173;-73
2022/07/27 03:29:56;;;;;;;4.40;3.40;;;20.90;1.00;;;;;;4931708;29;20415;-73
2022/07/27 03:32:22;;;;;;;4.50;3.30;;;20.90;1.00;;;;;;4932316;29;20203;-73
2022/07/27 03:34:47;;;;;;;5.20;3.00;;;20.90;1.00;;;;;;4931322;29;20243;-73
2022/07/27 03:37:14;;;;;;;4.77;3.10;;;20.80;1.00;;;;;;4932532;29;20187;-73
2022/07/27 03:39:39;;;;;;;4.23;3.27;;;20.80;1.00;;;;;;4923459;29;20173;-73
2022/07/27 03:42:05;;;;;;;4.07;3.43;;;20.70;1.00;;;;;;4930946;29;20459;-73
2022/07/27 03:44:31;;;;;;;3.90;3.30;;;20.70;1.00;;;;;;4931219;29;20678;-73
2022/07/27 03:46:56;;;;;;;4.40;3.60;;;20.70;1.00;;;;;;4945549;29;20232;-72
2022/07/27 03:49:22;;;;;;;5.27;3.60;;;20.60;1.00;;;;;;4931927;29;20816;-73
2022/07/27 03:51:47;;;;;;;8.10;3.20;;;20.60;1.00;;;;;;4930207;29;20293;-72
2022/07/27 03:54:13;;;;;;;3.90;3.10;;;20.60;1.00;;;;;;4927660;29;20205;-73
2022/07/27 03:56:38;;;;;;;4.00;3.00;;;20.60;1.00;;;;;;4930632;29;20201;-72
2022/07/27 03:59:04;;;;;;;4.93;3.03;;;20.70;1.00;;;;;;4931419;29;20216;-73
2022/07/27 04:01:29;;;;;;;4.10;3.10;;;20.70;1.00;;;;;;4929264;29;20212;-73
2022/07/27 04:03:55;;;;;;;3.63;2.77;;;20.70;1.00;;;;;;4931834;29;20200;-73
2022/07/27 04:06:20;;;;;;;3.57;3.13;;;20.70;1.00;;;;;;4930426;29;20204;-73
2022/07/27 04:08:46;;;;;;;6.27;2.60;;;20.70;1.00;;;;;;4924174;29;20306;-73
2022/07/27 04:11:12;;;;;;;4.43;3.10;;;20.70;1.00;;;;;;4945042;29;20647;-73
2022/07/27 04:13:37;;;;;;;7.20;2.80;;;20.80;1.00;;;;;;4931544;29;20168;-73
2022/07/27 04:16:03;;;;;;;4.13;2.80;;;20.80;1.00;;;;;;4930516;29;20548;-73
2022/07/27 04:18:29;;;;;;;4.43;2.97;;;20.80;1.00;;;;;;4946951;29;20214;-73
2022/07/27 04:20:55;;;;;;;4.83;2.70;;;20.80;1.00;;;;;;4926183;29;20283;-72
2022/07/27 04:23:20;;;;;;;3.10;2.60;;;21.10;1.00;;;;;;4931222;29;21303;-72
2022/07/27 04:25:46;;;;;;;7.73;2.73;;;20.80;1.00;;;;;;4929392;29;20631;-73
2022/07/27 04:28:11;;;;;;;3.20;2.33;;;20.70;1.00;;;;;;4931284;29;20184;-73
2022/07/27 04:30:36;;;;;;;3.57;2.33;;;20.80;1.00;;;;;;4928165;29;20212;-73
2022/07/27 04:33:02;;;;;;;2.77;2.20;;;20.80;1.00;;;;;;4931277;29;20201;-73
2022/07/27 04:35:28;;;;;;;4.40;2.47;;;20.80;1.00;;;;;;4930219;29;20181;-73
2022/07/27 04:37:54;;;;;;;3.73;2.30;;;20.80;1.00;;;;;;4931655;29;20212;-73
2022/07/27 04:40:19;;;;;;;3.97;2.43;;;20.80;1.00;;;;;;4930791;29;20208;-73
2022/07/27 04:42:45;;;;;;;9.40;2.40;;;20.80;1.00;;;;;;4928142;29;20555;-72
2022/07/27 04:45:10;;;;;;;3.90;2.33;;;20.90;1.00;;;;;;4931872;29;20184;-73
2022/07/27 04:47:36;;;;;;;3.23;2.23;;;20.80;1.00;;;;;;4929247;29;20184;-73
2022/07/27 04:50:01;;;;;;;2.87;2.00;;;20.90;1.00;;;;;;4921980;29;20538;-73
2022/07/27 04:52:27;;;;;;;4.50;2.53;;;20.90;1.00;;;;;;4929810;29;20224;-73
2022/07/27 04:54:53;;;;;;;4.23;2.47;;;20.90;1.00;;;;;;4930997;29;20188;-73
2022/07/27 04:57:21;;;;;;;5.03;2.60;;;20.90;1.00;;;;;;4930870;29;20708;-73
2022/07/27 04:59:47;;;;;;;2.50;2.00;;;21.00;1.00;;;;;;4928300;29;20444;-73
2022/07/27 05:02:12;;;;;;;4.10;2.20;;;21.00;1.00;;;;;;4930274;29;20453;-73
2022/07/27 05:04:38;;;;;;;5.90;2.27;;;21.00;1.00;;;;;;4929394;29;20583;-73
2022/07/27 05:07:04;;;;;;;2.90;2.20;;;21.10;1.00;;;;;;4931543;29;20525;-73
2022/07/27 05:09:29;;;;;;;4.17;2.20;;;21.10;1.00;;;;;;4930916;29;20659;-73
2022/07/27 05:11:55;;;;;;;3.00;2.10;;;21.20;1.00;;;;;;4927206;29;20211;-73
2022/07/27 05:14:20;;;;;;;3.37;2.20;;;21.20;1.00;;;;;;4945443;29;20204;-73
2022/07/27 05:16:46;;;;;;;3.60;2.50;;;21.20;1.00;;;;;;4931838;29;20212;-73
2022/07/27 05:19:11;;;;;;;3.47;2.23;;;21.20;1.00;;;;;;4934192;29;20176;-73
2022/07/27 05:21:37;;;;;;;2.80;2.10;;;21.30;1.00;;;;;;4930126;29;20270;-73
2022/07/27 05:24:03;;;;;;;3.80;2.27;;;21.40;1.00;;;;;;4934810;29;20197;-73
2022/07/27 05:26:29;;;;;;;3.70;2.10;;;21.40;1.00;;;;;;4934099;29;20436;-73
2022/07/27 05:28:54;;;;;;;2.83;2.00;;;21.50;1.00;;;;;;4934263;29;20208;-73
2022/07/27 05:31:20;;;;;;;7.00;2.17;;;21.60;1.00;;;;;;4931749;29;20315;-73
2022/07/27 05:33:45;;;;;;;6.60;2.27;;;21.60;1.00;;;;;;4934719;29;20710;-72
2022/07/27 05:36:11;;;;;;;2.87;1.90;;;21.70;1.00;;;;;;4934133;29;20191;-73
2022/07/27 05:38:38;;;;;;;3.60;2.10;;;21.50;1.00;;;;;;4934723;29;20185;-73
2022/07/27 05:41:05;;;;;;;3.57;2.00;;;21.50;1.00;;;;;;4929327;29;20200;-72
2022/07/27 05:43:31;;;;;;;5.80;1.80;;;21.60;1.00;;;;;;4933271;29;20460;-73
2022/07/27 05:45:56;;;;;;;3.23;1.90;;;21.40;1.00;;;;;;4933722;29;20599;-73
2022/07/27 05:48:22;;;;;;;3.50;1.90;;;21.60;1.00;;;;;;4935186;29;20191;-73
2022/07/27 05:50:47;;;;;;;2.60;1.80;;;21.70;1.00;;;;;;4931489;29;20232;-73
2022/07/27 05:53:13;;;;;;;4.13;2.00;;;21.80;1.00;;;;;;4934010;29;20670;-73
2022/07/27 05:55:38;;;;;;;5.13;2.27;;;21.90;1.00;;;;;;4932146;29;20176;-73
2022/07/27 05:58:05;;;;;;;3.80;2.10;;;21.90;1.00;;;;;;4927824;29;21258;-73
2022/07/27 06:00:30;;;;;;;4.30;2.00;;;22.00;1.00;;;;;;4931930;29;20216;-73
2022/07/27 06:02:56;;;;;;;2.80;1.90;;;22.00;1.00;;;;;;4933921;29;20460;-73
2022/07/27 06:05:21;;;;;;;4.60;2.00;;;21.90;1.00;;;;;;4932405;29;20549;-73
2022/07/27 06:07:59;;;;;;;2.87;1.80;;;22.00;1.00;;;;;;4933296;29;20187;-73
2022/07/27 06:10:31;;;;;;;3.07;1.67;;;22.00;1.00;;;;;;4931261;29;20200;-73
2022/07/27 06:12:57;;;;;;;4.03;1.80;;;22.00;1.00;;;;;;4932256;29;20428;-73
2022/07/27 06:15:22;;;;;;;3.00;1.90;;;21.90;1.00;;;;;;4933752;29;20432;-73
2022/07/27 06:17:51;;;;;;;3.13;1.90;;;21.80;1.00;;;;;;4933467;29;20493;-73
2022/07/27 06:20:17;;;;;;;3.97;1.70;;;22.10;1.00;;;;;;4946620;29;20669;-73
2022/07/27 06:22:48;;;;;;;3.53;1.90;;;22.10;1.00;;;;;;4934065;29;20515;-73
2022/07/27 06:25:14;;;;;;;4.73;1.80;;;22.30;1.00;;;;;;4933202;29;21010;-73
2022/07/27 06:27:40;;;;;;;2.73;1.80;;;22.50;1.00;;;;;;4932678;29;20444;-73
2022/07/27 06:30:07;;;;;;;2.47;1.60;;;22.50;1.00;;;;;;4931574;29;20839;-73
2022/07/27 06:32:32;;;;;;;2.80;1.80;;;22.60;1.00;;;;;;4948564;29;20916;-73
2022/07/27 06:34:59;;;;;;;3.80;1.93;;;22.70;1.00;;;;;;4932923;29;20429;-73
2022/07/27 06:37:26;;;;;;;2.80;1.73;;;22.80;1.00;;;;;;4933948;29;20172;-73
2022/07/27 06:39:52;;;;;;;4.03;1.70;;;23.00;1.00;;;;;;4930933;29;21172;-77
2022/07/27 06:42:17;;;;;;;3.03;2.00;;;23.30;1.00;;;;;;4933041;29;20761;-77
2022/07/27 06:44:43;;;;;;;2.70;1.80;;;23.40;1.00;;;;;;4946665;29;20460;-78
2022/07/27 06:47:08;;;;;;;4.07;1.67;;;23.70;1.00;;;;;;4931942;29;20192;-77
2022/07/27 06:49:34;;;;;;;2.63;1.70;;;23.70;1.00;;;;;;4932447;29;20185;-76
2022/07/27 06:51:59;;;;;;;3.23;1.70;;;23.80;1.00;;;;;;4931295;29;20204;-76
2022/07/27 06:57:00;;;;;;;3.17;2.00;;;23.90;1.00;;;;;;5979168;23;20166;-79
2022/07/27 07:12:17;;;;;;;4.00;1.80;;;24.40;1.00;;;;;;5927549;23;20370;-79
2022/07/27 07:27:41;;;;;;;3.07;1.90;;;;;;;;;;5691726;23;20453;-78
2022/07/27 07:32:42;;;;;;;5.90;1.70;;;;;;;;;;5510940;23;20234;-77
2022/07/27 07:37:44;;;;;;;3.73;1.90;;;;;;;;;;5596574;23;20241;-78
2022/07/27 07:40:09;;;;;;;4.70;2.07;;;25.80;1.00;;;;;;5706046;23;20457;-80
2022/07/27 07:47:46;;;;;;;2.60;1.73;;;25.80;1.00;;;;;;6082262;23;20366;-79
2022/07/27 07:50:12;;;;;;;5.00;2.23;;;26.00;1.00;;;;;;5557823;23;20494;-80
2022/07/27 07:52:37;;;;;;;3.40;2.00;;;26.00;1.00;;;;;;5646102;23;20206;-79
2022/07/27 07:55:04;;;;;;;3.10;2.20;;;25.90;1.00;;;;;;5861398;23;20191;-76
2022/07/27 08:00:09;;;;;;;2.83;1.63;;;26.70;1.00;;;;;;5638960;23;20452;-79
2022/07/27 08:18:13;;;;;;;8.20;1.83;;;26.30;1.00;;;;;;5640314;23;20499;-79
2022/07/27 08:25:44;;;;;;;3.90;2.27;;;27.00;1.00;;;;;;5788217;23;20480;-79
2022/07/27 08:35:58;;;;;;;3.23;1.87;;;28.00;1.00;;;;;;5204125;23;20492;-78
2022/07/27 08:41:11;;;;;;;5.33;1.93;;;27.30;1.00;;;;;;5644800;23;20469;-79
2022/07/27 08:51:23;;;;;;;3.50;1.70;;;27.20;1.00;;;;;;5515306;23;20229;-79
2022/07/27 08:56:21;;;;;;;3.90;1.83;;;27.30;1.00;;;;;;5578441;23;20490;-78
2022/07/27 09:16:54;;;;;;;2.85;1.50;;;34.80;1.00;;;;;;5401671;23;20251;-79
2022/07/27 09:19:19;;;;;;;3.00;1.50;;;35.20;1.00;;;;;;5757523;23;20231;-77
2022/07/27 09:42:30;;;;;;;2.97;1.55;;;35.90;1.00;;;;;;5589224;23;20253;-79
2022/07/27 09:44:56;;;;;;;3.85;1.90;;;35.10;1.00;;;;;;5523636;23;20219;-78
2022/07/27 09:50:16;;;;;;;3.25;1.80;;;35.90;1.00;;;;;;5745076;23;20213;-79
2022/07/27 10:03:03;;;;;;;2.45;1.58;;;34.10;1.00;;;;;;5363573;23;20235;-80
2022/07/27 10:15:43;;;;;;;4.63;2.08;;;29.90;1.00;;;;;;5007261;23;20230;-73
2022/07/27 10:18:19;;;;;;;5.15;2.17;;;30.50;1.00;;;;;;4974149;28;20661;-74
2022/07/27 10:20:46;;;;;;;4.95;2.13;;;31.60;1.00;;;;;;4970590;28;20175;-74
2022/07/27 10:23:28;;;;;;;3.58;2.05;;;31.80;1.00;;;;;;4973637;28;20199;-75
2022/07/27 10:26:16;;;;;;;3.35;2.03;;;32.70;1.00;;;;;;4972123;28;20175;-75
2022/07/27 10:28:54;;;;;;;3.90;2.08;;;33.10;1.00;;;;;;4971953;28;20199;-75
2022/07/27 10:31:23;;;;;;;4.85;2.20;;;32.90;1.00;;;;;;4973097;28;20184;-75
2022/07/27 10:33:51;;;;;;;3.85;2.00;;;32.30;1.00;;;;;;4972342;28;20202;-74
2022/07/27 10:36:22;;;;;;;6.93;2.25;;;31.80;1.00;;;;;;4972007;28;20218;-75
2022/07/27 10:38:56;;;;;;;6.10;2.17;;;32.20;1.00;;;;;;4968554;28;20185;-75
2022/07/27 10:41:27;;;;;;;3.28;2.10;;;32.30;1.00;;;;;;4974297;28;20183;-75
2022/07/27 10:44:20;;;;;;;5.05;2.00;;;32.20;1.00;;;;;;4964863;28;20215;-75
2022/07/27 10:47:01;;;;;;;3.42;2.00;;;32.30;1.00;;;;;;4971864;28;20200;-75
2022/07/27 10:49:29;;;;;;;4.43;2.00;;;32.40;1.00;;;;;;4973791;28;20182;-75
2022/07/27 10:51:57;;;;;;;3.08;1.80;;;33.30;1.00;;;;;;4968804;28;20239;-75
2022/07/27 10:54:31;;;;;;;4.13;1.90;;;33.30;1.00;;;;;;4984333;28;20238;-75
2022/07/27 10:56:58;;;;;;;3.10;1.70;;;32.80;1.00;;;;;;4972167;28;20593;-75
2022/07/27 10:59:39;;;;;;;3.38;1.95;;;33.20;1.00;;;;;;4971455;28;20544;-75
2022/07/27 11:02:06;;;;;;;8.75;2.00;;;35.60;1.00;;;;;;4976655;28;20187;-75
2022/07/27 11:04:33;;;;;;;4.60;2.10;;;37.20;1.00;;;;;;4971757;28;20210;-75
2022/07/27 11:07:00;;;;;;;4.78;1.95;;;36.50;1.00;;;;;;4971072;28;20691;-75
2022/07/27 11:09:39;;;;;;;4.15;1.70;;;35.10;1.00;;;;;;4970659;28;20369;-75
2022/07/27 11:12:06;;;;;;;3.85;2.17;;;34.20;1.00;;;;;;4960025;28;20207;-76
2022/07/27 11:14:53;;;;;;;6.85;2.00;;;33.70;1.00;;;;;;4962290;28;20207;-75
2022/07/27 11:17:24;;;;;;;8.20;2.10;;;33.90;1.00;;;;;;4969487;28;20668;-75
2022/07/27 11:19:57;;;;;;;3.78;1.88;;;34.90;1.00;;;;;;4972375;28;20186;-75
2022/07/27 11:22:38;;;;;;;8.25;1.90;;;35.10;1.00;;;;;;4969712;28;20180;-75
2022/07/27 11:25:05;;;;;;;5.70;2.20;;;35.30;1.00;;;;;;4966671;28;20670;-75
2022/07/27 11:27:31;;;;;;;4.07;1.92;;;36.40;1.00;;;;;;4971614;28;20183;-76
2022/07/27 11:29:56;;;;;;;3.92;1.95;;;37.40;1.00;;;;;;4964354;28;20179;-75
2022/07/27 11:32:22;;;;;;;7.38;1.90;;;36.30;1.00;;;;;;4964863;28;20254;-75
2022/07/27 11:34:49;;;;;;;8.90;2.35;;;34.90;1.00;;;;;;4984343;28;20250;-75
2022/07/27 11:37:18;;;;;;;5.50;2.30;;;34.10;1.00;;;;;;4971389;28;20640;-75
2022/07/27 11:39:47;;;;;;;3.10;1.90;;;33.50;1.00;;;;;;4972313;28;20167;-76
2022/07/27 11:42:14;;;;;;;6.20;2.40;;;32.90;1.00;;;;;;4971183;28;20187;-75
2022/07/27 11:44:45;;;;;;;3.75;2.10;;;32.70;1.00;;;;;;4971003;28;20199;-75
2022/07/27 11:47:15;;;;;;;4.00;2.45;;;31.90;1.00;;;;;;4980079;28;20172;-75
2022/07/27 11:49:41;;;;;;;4.90;2.63;;;31.40;1.00;;;;;;4968379;28;20167;-75
2022/07/27 11:52:08;;;;;;;6.13;2.30;;;30.70;1.00;;;;;;4969537;28;20183;-75
2022/07/27 11:54:39;;;;;;;6.55;2.20;;;30.90;1.00;;;;;;4969776;28;20238;-74
2022/07/27 11:57:07;;;;;;;5.88;2.17;;;32.70;1.00;;;;;;4958754;28;20226;-75
2022/07/27 11:59:41;;;;;;;6.88;2.42;;;34.20;1.00;;;;;;4966867;28;20179;-74
2022/07/27 12:02:16;;;;;;;5.72;2.40;;;36.20;1.00;;;;;;4958340;28;20726;-75
2022/07/27 12:04:44;;;;;;;7.53;2.15;;;38.40;1.00;;;;;;4969896;28;20230;-75
2022/07/27 12:07:13;;;;;;;6.20;2.03;;;39.40;1.00;;;;;;4966892;28;20190;-76
2022/07/27 12:09:42;;;;;;;4.20;2.20;;;40.00;1.00;;;;;;4977925;28;20195;-76
2022/07/27 12:12:15;;;;;;;3.20;1.80;;;41.00;1.00;;;;;;4959281;28;20608;-76
2022/07/27 12:14:47;;;;;;;5.53;2.10;;;41.40;1.00;;;;;;4969862;28;20242;-76
2022/07/27 12:17:17;;;;;;;7.38;1.90;;;41.10;1.00;;;;;;4964689;28;20181;-76
2022/07/27 12:19:54;;;;;;;4.45;1.88;;;41.00;1.00;;;;;;4969599;28;20182;-76
2022/07/27 12:22:33;;;;;;;6.82;1.90;;;39.40;1.00;;;;;;4964122;28;20207;-76
2022/07/27 12:25:04;;;;;;;4.63;1.88;;;39.80;1.00;;;;;;4971083;28;20210;-76
2022/07/27 12:27:30;;;;;;;5.10;1.65;;;41.30;1.00;;;;;;4968108;28;20261;-76
2022/07/27 12:30:11;;;;;;;5.03;2.00;;;41.90;1.00;;;;;;4970282;28;20248;-76
2022/07/27 12:32:44;;;;;;;5.15;2.47;;;41.10;1.00;;;;;;4968556;28;20183;-76
2022/07/27 12:35:29;;;;;;;5.38;2.88;;;38.90;1.00;;;;;;4970023;28;20203;-76
2022/07/27 12:38:06;;;;;;;4.38;1.90;;;37.40;1.00;;;;;;4966496;28;20207;-76
2022/07/27 12:40:33;;;;;;;13.30;2.42;;;38.00;1.00;;;;;;4959518;28;20183;-76
2022/07/27 12:43:05;;;;;;;6.10;1.90;;;37.60;1.00;;;;;;4986338;28;20249;-75
2022/07/27 12:45:36;;;;;;;7.22;2.20;;;38.30;1.00;;;;;;4969611;28;20265;-75
2022/07/27 12:48:17;;;;;;;9.05;2.50;;;39.20;1.00;;;;;;4971011;28;20183;-76
2022/07/27 12:50:45;;;;;;;6.00;2.17;;;40.60;1.00;;;;;;4965064;28;20281;-76
2022/07/27 12:53:12;;;;;;;3.80;2.00;;;41.70;1.00;;;;;;4961296;28;20245;-76
2022/07/27 12:55:38;;;;;;;4.78;1.90;;;42.40;1.00;;;;;;4970094;28;20199;-76
2022/07/27 12:58:06;;;;;;;4.63;1.75;;;42.60;1.00;;;;;;4963596;28;20188;-76
2022/07/27 13:00:33;;;;;;;4.28;1.98;;;42.80;1.00;;;;;;4967884;28;20221;-76
2022/07/27 13:02:59;;;;;;;5.72;2.00;;;42.00;1.00;;;;;;4962447;28;20291;-77
2022/07/27 13:05:25;;;;;;;4.40;2.05;;;42.10;1.00;;;;;;4965198;28;20560;-77
2022/07/27 13:07:52;;;;;;;5.07;1.98;;;41.90;1.00;;;;;;4971533;28;20210;-77
2022/07/27 13:10:18;;;;;;;6.47;2.15;;;42.40;1.00;;;;;;4970322;28;20210;-76
2022/07/27 13:12:44;;;;;;;3.70;1.80;;;42.10;1.00;;;;;;4961450;28;20175;-77
2022/07/27 13:15:10;;;;;;;3.45;1.83;;;41.90;1.00;;;;;;4985281;28;20203;-76
2022/07/27 13:17:36;;;;;;;3.00;1.90;;;42.00;1.00;;;;;;4961229;28;20235;-76
2022/07/27 13:20:04;;;;;;;5.43;2.22;;;42.40;1.00;;;;;;4970597;28;20811;-77
2022/07/27 13:22:30;;;;;;;6.03;2.30;;;42.30;1.00;;;;;;4969034;28;20195;-76
2022/07/27 13:24:55;;;;;;;4.70;1.95;;;42.60;1.00;;;;;;4969731;28;20215;-76
2022/07/27 13:27:21;;;;;;;3.53;2.00;;;43.20;1.00;;;;;;4965526;28;20184;-77
2022/07/27 13:29:46;;;;;;;6.32;2.05;;;43.30;1.00;;;;;;4970221;28;20171;-77
2022/07/27 13:32:12;;;;;;;4.15;1.80;;;42.90;1.00;;;;;;4969844;28;20303;-77
2022/07/27 13:34:37;;;;;;;5.57;2.50;;;43.30;1.00;;;;;;4971222;28;20274;-76
2022/07/27 13:37:03;;;;;;;5.25;2.22;;;43.00;1.00;;;;;;4962504;28;20314;-76
2022/07/27 13:39:29;;;;;;;5.15;2.10;;;42.40;1.00;;;;;;4986938;28;20183;-77
2022/07/27 13:41:55;;;;;;;4.05;2.00;;;42.00;1.00;;;;;;4973832;28;20183;-77
2022/07/27 13:44:22;;;;;;;7.18;1.92;;;42.70;1.00;;;;;;4972907;28;20218;-77
2022/07/27 13:46:48;;;;;;;4.53;1.92;;;43.00;1.00;;;;;;4973695;28;20183;-77
2022/07/27 13:49:16;;;;;;;4.28;2.00;;;43.60;1.00;;;;;;4973763;28;20171;-77
2022/07/27 13:51:42;;;;;;;3.63;2.15;;;43.80;1.00;;;;;;4971821;28;20167;-76
2022/07/27 13:54:09;;;;;;;3.42;1.88;;;43.10;1.00;;;;;;4971528;28;20199;-77
2022/07/27 13:56:35;;;;;;;3.72;1.90;;;42.90;1.00;;;;;;4974292;28;20178;-77
2022/07/27 13:59:00;;;;;;;5.30;2.22;;;42.90;1.00;;;;;;4958938;28;20180;-77
2022/07/27 14:01:26;;;;;;;3.85;1.98;;;43.00;1.00;;;;;;4969114;28;20745;-77
2022/07/27 14:03:52;;;;;;;3.97;1.90;;;43.30;1.00;;;;;;4971911;28;20211;-76
2022/07/27 14:06:18;;;;;;;4.10;2.17;;;43.30;1.00;;;;;;4973038;28;20203;-77
2022/07/27 14:08:45;;;;;;;5.85;1.73;;;43.30;1.00;;;;;;4973134;28;20210;-77
2022/07/27 14:11:11;;;;;;;3.78;1.75;;;43.10;1.00;;;;;;4971799;28;20186;-76
2022/07/27 14:13:37;;;;;;;4.05;1.98;;;43.20;1.00;;;;;;4985734;28;20670;-77
2022/07/27 14:16:03;;;;;;;7.32;1.95;;;43.20;1.00;;;;;;4964248;28;20202;-75
2022/07/27 14:18:29;;;;;;;5.25;1.92;;;43.50;1.00;;;;;;4972107;28;20666;-77
2022/07/27 14:20:57;;;;;;;6.10;2.30;;;43.10;1.00;;;;;;4972079;28;20176;-76
2022/07/27 14:23:24;;;;;;;6.18;2.00;;;42.70;1.00;;;;;;4965823;28;20191;-76
2022/07/27 14:25:50;;;;;;;5.43;2.20;;;41.00;1.00;;;;;;4972798;28;20705;-76
2022/07/27 14:28:16;;;;;;;5.25;1.92;;;38.50;1.00;;;;;;4970862;28;20179;-76
2022/07/27 14:30:41;;;;;;;4.93;2.20;;;36.60;1.00;;;;;;4966330;28;20194;-75
2022/07/27 14:33:07;;;;;;;5.03;2.75;;;35.00;1.00;;;;;;4982495;28;20658;-75
2022/07/27 14:35:32;;;;;;;6.68;2.38;;;34.60;1.00;;;;;;4971756;28;20200;-76
2022/07/27 14:38:00;;;;;;;4.93;2.00;;;35.70;1.00;;;;;;4972729;28;20183;-76
2022/07/27 14:40:27;;;;;;;4.45;2.47;;;36.00;1.00;;;;;;4972586;28;20253;-76
2022/07/27 14:42:52;;;;;;;4.10;2.08;;;35.70;1.00;;;;;;4960220;28;20558;-75
2022/07/27 14:45:18;;;;;;;5.53;2.20;;;36.40;1.00;;;;;;4964982;28;20191;-75
2022/07/27 14:47:44;;;;;;;4.65;2.00;;;36.40;1.00;;;;;;4966001;28;20175;-76
2022/07/27 14:50:10;;;;;;;5.30;1.98;;;37.60;1.00;;;;;;4971812;28;20649;-76
2022/07/27 14:52:35;;;;;;;6.93;2.47;;;38.90;1.00;;;;;;4972798;28;20187;-75
2022/07/27 14:55:01;;;;;;;7.38;2.30;;;39.70;1.00;;;;;;4972432;28;20211;-76
2022/07/27 14:57:27;;;;;;;4.60;2.20;;;40.10;1.00;;;;;;4971903;28;20191;-76
2022/07/27 14:59:53;;;;;;;3.67;2.00;;;39.80;1.00;;;;;;4972299;28;20179;-76
2022/07/27 15:02:19;;;;;;;5.82;2.30;;;39.30;1.00;;;;;;4966972;28;20171;-75
2022/07/27 15:04:45;;;;;;;4.72;2.28;;;39.10;1.00;;;;;;4941500;28;20211;-76
2022/07/27 15:07:10;;;;;;;3.53;1.80;;;38.00;1.00;;;;;;4972120;28;20178;-75
2022/07/27 15:09:36;;;;;;;5.35;2.50;;;36.20;1.00;;;;;;4981116;28;20206;-75
2022/07/27 15:12:02;;;;;;;9.02;2.00;;;35.50;1.00;;;;;;4972863;28;20179;-75
2022/07/27 15:14:28;;;;;;;3.35;2.00;;;35.50;1.00;;;;;;4971446;28;20218;-75
2022/07/27 15:16:54;;;;;;;4.38;2.13;;;35.70;1.00;;;;;;4970755;28;20183;-75
2022/07/27 15:19:20;;;;;;;6.35;2.60;;;34.80;1.00;;;;;;4973410;28;20581;-76
2022/07/27 15:21:46;;;;;;;4.13;2.42;;;33.40;1.00;;;;;;4962894;28;20187;-75
2022/07/27 15:24:12;;;;;;;6.35;2.33;;;32.30;1.00;;;;;;4972467;28;20203;-75